Terminal Aerodrome Forecast
Issued by NWS

Home | Current Version | Previous Version | Text Only | Print | Product List | Glossary On
Versions: 1 2 3 4 5 6 7 8 9 10 11 12 13 14 15 16 17 18 19 20 21 22
769
FTUS41 KOKX 091132
TAFSWF
TAF
KSWF 091132Z 0912/1018 07005KT 6SM BR SCT008 OVC012
     FM091400 08005KT P6SM SCT015 BKN020
     FM100400 08004KT 2SM -SN BKN008 BKN015
     FM101400 27008KT P6SM SCT015 BKN030
      AMD NOT SKED=

USA.gov is the U.S. government's official web portal to all federal, state and local government web resources and services.